sensor_id;sensor_type;location;lat;lon;timestamp;P1;durP1;ratioP1;P2;durP2;ratioP2
18076;SDS011;9165;45.714;11.362;2023-04-25T00:01:14;4.77;;;1.30;;
18076;SDS011;9165;45.714;11.362;2023-04-25T00:03:41;2.20;;;1.27;;
18076;SDS011;9165;45.714;11.362;2023-04-25T00:06:08;2.23;;;1.73;;
18076;SDS011;9165;45.714;11.362;2023-04-25T00:08:34;3.50;;;1.60;;
18076;SDS011;9165;45.714;11.362;2023-04-25T00:11:02;1.97;;;1.77;;
18076;SDS011;9165;45.714;11.362;2023-04-25T00:13:29;1.47;;;1.37;;
18076;SDS011;9165;45.714;11.362;2023-04-25T00:15:56;1.60;;;1.50;;
18076;SDS011;9165;45.714;11.362;2023-04-25T00:18:23;1.50;;;1.40;;
18076;SDS011;9165;45.714;11.362;2023-04-25T00:20:49;1.90;;;1.57;;
18076;SDS011;9165;45.714;11.362;2023-04-25T00:23:16;2.77;;;1.70;;
18076;SDS011;9165;45.714;11.362;2023-04-25T00:25:43;3.20;;;1.60;;
18076;SDS011;9165;45.714;11.362;2023-04-25T00:28:12;1.67;;;1.53;;
18076;SDS011;9165;45.714;11.362;2023-04-25T00:30:39;2.33;;;1.63;;
18076;SDS011;9165;45.714;11.362;2023-04-25T00:33:05;3.90;;;1.90;;
18076;SDS011;9165;45.714;11.362;2023-04-25T00:35:32;2.07;;;1.50;;
18076;SDS011;9165;45.714;11.362;2023-04-25T00:37:59;4.30;;;1.57;;
18076;SDS011;9165;45.714;11.362;2023-04-25T00:40:25;1.60;;;1.50;;
18076;SDS011;9165;45.714;11.362;2023-04-25T00:42:52;1.73;;;1.47;;
18076;SDS011;9165;45.714;11.362;2023-04-25T00:45:20;3.53;;;1.80;;
18076;SDS011;9165;45.714;11.362;2023-04-25T00:47:47;2.53;;;1.67;;
18076;SDS011;9165;45.714;11.362;2023-04-25T00:50:13;3.23;;;1.87;;
18076;SDS011;9165;45.714;11.362;2023-04-25T00:52:40;1.63;;;1.53;;
18076;SDS011;9165;45.714;11.362;2023-04-25T00:55:08;3.37;;;1.97;;
18076;SDS011;9165;45.714;11.362;2023-04-25T00:57:35;1.40;;;1.30;;
18076;SDS011;9165;45.714;11.362;2023-04-25T01:00:02;1.67;;;1.57;;
18076;SDS011;9165;45.714;11.362;2023-04-25T01:02:31;2.33;;;1.60;;
18076;SDS011;9165;45.714;11.362;2023-04-25T01:04:58;1.70;;;1.57;;
18076;SDS011;9165;45.714;11.362;2023-04-25T01:07:25;1.63;;;1.40;;
18076;SDS011;9165;45.714;11.362;2023-04-25T01:09:52;3.67;;;1.73;;
18076;SDS011;9165;45.714;11.362;2023-04-25T01:12:18;1.80;;;1.37;;
18076;SDS011;9165;45.714;11.362;2023-04-25T01:14:45;3.53;;;1.83;;
18076;SDS011;9165;45.714;11.362;2023-04-25T01:17:12;1.73;;;1.60;;
18076;SDS011;9165;45.714;11.362;2023-04-25T01:19:41;2.70;;;1.53;;
18076;SDS011;9165;45.714;11.362;2023-04-25T01:22:09;3.07;;;1.40;;
18076;SDS011;9165;45.714;11.362;2023-04-25T01:24:36;2.17;;;1.60;;
18076;SDS011;9165;45.714;11.362;2023-04-25T01:27:03;1.80;;;1.53;;
18076;SDS011;9165;45.714;11.362;2023-04-25T01:29:31;4.40;;;1.70;;
18076;SDS011;9165;45.714;11.362;2023-04-25T01:31:58;4.33;;;1.70;;
18076;SDS011;9165;45.714;11.362;2023-04-25T01:34:25;2.43;;;1.63;;
18076;SDS011;9165;45.714;11.362;2023-04-25T01:36:52;2.87;;;1.90;;
18076;SDS011;9165;45.714;11.362;2023-04-25T01:39:20;6.17;;;1.80;;
18076;SDS011;9165;45.714;11.362;2023-04-25T01:41:47;3.03;;;1.93;;
18076;SDS011;9165;45.714;11.362;2023-04-25T01:44:14;4.03;;;2.23;;
18076;SDS011;9165;45.714;11.362;2023-04-25T01:46:41;1.93;;;1.60;;
18076;SDS011;9165;45.714;11.362;2023-04-25T01:49:07;2.67;;;1.37;;
18076;SDS011;9165;45.714;11.362;2023-04-25T01:51:34;4.27;;;1.40;;
18076;SDS011;9165;45.714;11.362;2023-04-25T01:54:00;2.10;;;1.60;;
18076;SDS011;9165;45.714;11.362;2023-04-25T01:56:31;2.90;;;1.70;;
18076;SDS011;9165;45.714;11.362;2023-04-25T01:58:57;1.83;;;1.70;;
18076;SDS011;9165;45.714;11.362;2023-04-25T02:01:24;2.10;;;1.90;;
18076;SDS011;9165;45.714;11.362;2023-04-25T02:03:51;2.27;;;1.60;;
18076;SDS011;9165;45.714;11.362;2023-04-25T02:06:17;2.73;;;1.63;;
18076;SDS011;9165;45.714;11.362;2023-04-25T02:08:44;2.50;;;1.70;;
18076;SDS011;9165;45.714;11.362;2023-04-25T02:11:10;1.70;;;1.50;;
18076;SDS011;9165;45.714;11.362;2023-04-25T02:13:38;2.13;;;1.77;;
18076;SDS011;9165;45.714;11.362;2023-04-25T02:16:05;2.77;;;1.80;;
18076;SDS011;9165;45.714;11.362;2023-04-25T02:18:31;2.53;;;2.00;;
18076;SDS011;9165;45.714;11.362;2023-04-25T02:20:58;1.60;;;1.40;;
18076;SDS011;9165;45.714;11.362;2023-04-25T02:23:26;1.60;;;1.47;;
18076;SDS011;9165;45.714;11.362;2023-04-25T02:25:52;3.53;;;2.00;;
18076;SDS011;9165;45.714;11.362;2023-04-25T02:28:20;2.73;;;1.73;;
18076;SDS011;9165;45.714;11.362;2023-04-25T02:30:48;2.77;;;1.60;;
18076;SDS011;9165;45.714;11.362;2023-04-25T02:33:14;1.97;;;1.77;;
18076;SDS011;9165;45.714;11.362;2023-04-25T02:35:42;3.33;;;1.70;;
18076;SDS011;9165;45.714;11.362;2023-04-25T02:38:08;4.33;;;1.70;;
18076;SDS011;9165;45.714;11.362;2023-04-25T02:40:35;2.17;;;1.80;;
18076;SDS011;9165;45.714;11.362;2023-04-25T02:43:01;3.17;;;1.70;;
18076;SDS011;9165;45.714;11.362;2023-04-25T02:45:28;4.30;;;1.70;;
18076;SDS011;9165;45.714;11.362;2023-04-25T02:47:56;1.80;;;1.60;;
18076;SDS011;9165;45.714;11.362;2023-04-25T02:50:23;1.70;;;1.60;;
18076;SDS011;9165;45.714;11.362;2023-04-25T02:52:50;2.40;;;1.73;;
18076;SDS011;9165;45.714;11.362;2023-04-25T02:55:16;3.40;;;1.53;;
18076;SDS011;9165;45.714;11.362;2023-04-25T02:57:43;2.30;;;1.40;;
18076;SDS011;9165;45.714;11.362;2023-04-25T03:00:10;2.60;;;1.50;;
18076;SDS011;9165;45.714;11.362;2023-04-25T03:02:39;2.33;;;1.30;;
18076;SDS011;9165;45.714;11.362;2023-04-25T03:05:07;1.63;;;1.40;;
18076;SDS011;9165;45.714;11.362;2023-04-25T03:07:34;4.07;;;1.93;;
18076;SDS011;9165;45.714;11.362;2023-04-25T03:10:00;1.43;;;1.33;;
18076;SDS011;9165;45.714;11.362;2023-04-25T03:12:27;2.73;;;1.60;;
18076;SDS011;9165;45.714;11.362;2023-04-25T03:14:54;1.93;;;1.60;;
18076;SDS011;9165;45.714;11.362;2023-04-25T03:17:20;3.67;;;1.40;;
18076;SDS011;9165;45.714;11.362;2023-04-25T03:19:47;1.57;;;1.40;;
18076;SDS011;9165;45.714;11.362;2023-04-25T03:22:15;1.67;;;1.40;;
18076;SDS011;9165;45.714;11.362;2023-04-25T03:24:42;3.40;;;1.40;;
18076;SDS011;9165;45.714;11.362;2023-04-25T03:27:08;2.13;;;1.47;;
18076;SDS011;9165;45.714;11.362;2023-04-25T03:29:35;1.43;;;1.00;;
18076;SDS011;9165;45.714;11.362;2023-04-25T03:32:01;2.90;;;1.30;;
18076;SDS011;9165;45.714;11.362;2023-04-25T03:34:29;2.63;;;1.33;;
18076;SDS011;9165;45.714;11.362;2023-04-25T03:36:56;3.43;;;1.07;;
18076;SDS011;9165;45.714;11.362;2023-04-25T03:41:49;1.57;;;1.00;;
18076;SDS011;9165;45.714;11.362;2023-04-25T03:44:16;1.10;;;1.00;;
18076;SDS011;9165;45.714;11.362;2023-04-25T03:46:42;1.20;;;1.10;;
18076;SDS011;9165;45.714;11.362;2023-04-25T03:49:09;1.20;;;0.87;;
18076;SDS011;9165;45.714;11.362;2023-04-25T03:51:36;1.33;;;1.00;;
18076;SDS011;9165;45.714;11.362;2023-04-25T03:54:02;1.40;;;1.13;;
18076;SDS011;9165;45.714;11.362;2023-04-25T03:56:29;1.10;;;1.00;;
18076;SDS011;9165;45.714;11.362;2023-04-25T03:58:57;1.00;;;1.00;;
18076;SDS011;9165;45.714;11.362;2023-04-25T04:01:24;1.30;;;1.20;;
18076;SDS011;9165;45.714;11.362;2023-04-25T04:03:50;1.03;;;0.93;;
18076;SDS011;9165;45.714;11.362;2023-04-25T04:06:17;0.87;;;0.87;;
18076;SDS011;9165;45.714;11.362;2023-04-25T04:08:45;0.80;;;0.80;;
18076;SDS011;9165;45.714;11.362;2023-04-25T04:11:12;3.97;;;1.20;;
18076;SDS011;9165;45.714;11.362;2023-04-25T04:13:38;3.30;;;1.43;;
18076;SDS011;9165;45.714;11.362;2023-04-25T04:16:07;1.57;;;1.47;;
18076;SDS011;9165;45.714;11.362;2023-04-25T04:18:33;1.70;;;1.27;;
18076;SDS011;9165;45.714;11.362;2023-04-25T04:21:00;2.70;;;1.63;;
18076;SDS011;9165;45.714;11.362;2023-04-25T04:23:27;1.53;;;1.40;;
18076;SDS011;9165;45.714;11.362;2023-04-25T04:25:54;2.40;;;1.90;;
18076;SDS011;9165;45.714;11.362;2023-04-25T04:28:21;3.70;;;1.90;;
18076;SDS011;9165;45.714;11.362;2023-04-25T04:30:47;5.60;;;1.83;;
18076;SDS011;9165;45.714;11.362;2023-04-25T04:33:17;3.07;;;1.83;;
18076;SDS011;9165;45.714;11.362;2023-04-25T04:35:45;2.70;;;1.50;;
18076;SDS011;9165;45.714;11.362;2023-04-25T04:38:12;3.17;;;1.20;;
18076;SDS011;9165;45.714;11.362;2023-04-25T04:40:40;4.87;;;1.50;;
18076;SDS011;9165;45.714;11.362;2023-04-25T04:43:07;1.33;;;1.23;;
18076;SDS011;9165;45.714;11.362;2023-04-25T04:45:34;5.13;;;1.30;;
18076;SDS011;9165;45.714;11.362;2023-04-25T04:48:00;1.70;;;1.57;;
18076;SDS011;9165;45.714;11.362;2023-04-25T04:50:28;1.80;;;1.70;;
18076;SDS011;9165;45.714;11.362;2023-04-25T04:52:57;2.50;;;1.87;;
18076;SDS011;9165;45.714;11.362;2023-04-25T04:55:24;1.87;;;1.70;;
18076;SDS011;9165;45.714;11.362;2023-04-25T04:57:50;4.73;;;1.83;;
18076;SDS011;9165;45.714;11.362;2023-04-25T05:00:17;1.60;;;1.50;;
18076;SDS011;9165;45.714;11.362;2023-04-25T05:02:44;2.97;;;1.77;;
18076;SDS011;9165;45.714;11.362;2023-04-25T05:05:10;1.97;;;1.53;;
18076;SDS011;9165;45.714;11.362;2023-04-25T05:07:38;4.20;;;1.60;;
18076;SDS011;9165;45.714;11.362;2023-04-25T05:10:06;2.40;;;1.97;;
18076;SDS011;9165;45.714;11.362;2023-04-25T05:12:33;2.83;;;2.10;;
18076;SDS011;9165;45.714;11.362;2023-04-25T05:14:59;5.17;;;1.87;;
18076;SDS011;9165;45.714;11.362;2023-04-25T05:17:26;2.03;;;1.83;;
18076;SDS011;9165;45.714;11.362;2023-04-25T05:19:52;5.00;;;1.57;;
18076;SDS011;9165;45.714;11.362;2023-04-25T05:22:19;1.97;;;1.70;;
18076;SDS011;9165;45.714;11.362;2023-04-25T05:24:47;1.53;;;1.33;;
18076;SDS011;9165;45.714;11.362;2023-04-25T05:27:16;1.77;;;1.40;;
18076;SDS011;9165;45.714;11.362;2023-04-25T05:29:42;3.00;;;1.50;;
18076;SDS011;9165;45.714;11.362;2023-04-25T05:32:09;2.77;;;1.57;;
18076;SDS011;9165;45.714;11.362;2023-04-25T05:34:36;1.03;;;0.97;;
18076;SDS011;9165;45.714;11.362;2023-04-25T05:37:02;1.93;;;1.20;;
18076;SDS011;9165;45.714;11.362;2023-04-25T05:39:29;0.90;;;0.83;;
18076;SDS011;9165;45.714;11.362;2023-04-25T05:41:57;1.00;;;0.73;;
18076;SDS011;9165;45.714;11.362;2023-04-25T05:44:23;1.17;;;0.80;;
18076;SDS011;9165;45.714;11.362;2023-04-25T05:46:50;1.63;;;0.93;;
18076;SDS011;9165;45.714;11.362;2023-04-25T05:49:17;0.90;;;0.90;;
18076;SDS011;9165;45.714;11.362;2023-04-25T05:51:43;1.67;;;0.90;;
18076;SDS011;9165;45.714;11.362;2023-04-25T05:54:10;1.17;;;0.90;;
18076;SDS011;9165;45.714;11.362;2023-04-25T05:56:37;2.00;;;1.13;;
18076;SDS011;9165;45.714;11.362;2023-04-25T05:59:05;2.00;;;1.27;;
18076;SDS011;9165;45.714;11.362;2023-04-25T06:01:32;0.70;;;0.70;;
18076;SDS011;9165;45.714;11.362;2023-04-25T06:03:58;2.47;;;1.40;;
18076;SDS011;9165;45.714;11.362;2023-04-25T06:06:25;1.83;;;1.03;;
18076;SDS011;9165;45.714;11.362;2023-04-25T06:08:53;2.40;;;1.07;;
18076;SDS011;9165;45.714;11.362;2023-04-25T06:11:19;1.10;;;1.00;;
18076;SDS011;9165;45.714;11.362;2023-04-25T06:13:46;2.03;;;1.20;;
18076;SDS011;9165;45.714;11.362;2023-04-25T06:16:14;4.03;;;1.50;;
18076;SDS011;9165;45.714;11.362;2023-04-25T06:18:40;1.63;;;1.20;;
18076;SDS011;9165;45.714;11.362;2023-04-25T06:21:07;1.20;;;1.00;;
18076;SDS011;9165;45.714;11.362;2023-04-25T06:23:34;1.80;;;1.20;;
18076;SDS011;9165;45.714;11.362;2023-04-25T06:26:00;1.80;;;1.40;;
18076;SDS011;9165;45.714;11.362;2023-04-25T06:28:27;6.73;;;1.30;;
18076;SDS011;9165;45.714;11.362;2023-04-25T06:30:54;2.73;;;1.13;;
18076;SDS011;9165;45.714;11.362;2023-04-25T06:33:22;2.43;;;1.40;;
18076;SDS011;9165;45.714;11.362;2023-04-25T06:35:49;1.20;;;1.10;;
18076;SDS011;9165;45.714;11.362;2023-04-25T06:38:16;2.17;;;1.17;;
18076;SDS011;9165;45.714;11.362;2023-04-25T06:40:42;3.03;;;1.57;;
18076;SDS011;9165;45.714;11.362;2023-04-25T06:43:09;2.97;;;1.10;;
18076;SDS011;9165;45.714;11.362;2023-04-25T06:45:35;1.70;;;1.10;;
18076;SDS011;9165;45.714;11.362;2023-04-25T06:48:02;2.67;;;1.40;;
18076;SDS011;9165;45.714;11.362;2023-04-25T06:50:30;1.70;;;1.30;;
18076;SDS011;9165;45.714;11.362;2023-04-25T06:52:56;1.83;;;1.20;;
18076;SDS011;9165;45.714;11.362;2023-04-25T06:55:23;1.13;;;0.90;;
18076;SDS011;9165;45.714;11.362;2023-04-25T06:57:49;2.87;;;1.03;;
18076;SDS011;9165;45.714;11.362;2023-04-25T07:00:16;3.53;;;1.20;;
18076;SDS011;9165;45.714;11.362;2023-04-25T07:02:43;2.10;;;1.33;;
18076;SDS011;9165;45.714;11.362;2023-04-25T07:05:10;3.47;;;1.20;;
18076;SDS011;9165;45.714;11.362;2023-04-25T07:07:38;2.63;;;1.07;;
18076;SDS011;9165;45.714;11.362;2023-04-25T07:10:05;1.00;;;0.90;;
18076;SDS011;9165;45.714;11.362;2023-04-25T07:12:31;1.50;;;1.40;;
18076;SDS011;9165;45.714;11.362;2023-04-25T07:14:58;1.90;;;1.27;;
18076;SDS011;9165;45.714;11.362;2023-04-25T07:17:24;2.53;;;1.40;;
18076;SDS011;9165;45.714;11.362;2023-04-25T07:19:50;1.83;;;1.40;;
18076;SDS011;9165;45.714;11.362;2023-04-25T07:22:17;1.40;;;1.07;;
18076;SDS011;9165;45.714;11.362;2023-04-25T07:24:45;1.17;;;1.07;;
18076;SDS011;9165;45.714;11.362;2023-04-25T07:27:13;1.13;;;0.77;;
18076;SDS011;9165;45.714;11.362;2023-04-25T07:29:40;2.20;;;1.00;;
18076;SDS011;9165;45.714;11.362;2023-04-25T07:32:08;1.30;;;1.00;;
18076;SDS011;9165;45.714;11.362;2023-04-25T07:34:35;2.93;;;1.03;;
18076;SDS011;9165;45.714;11.362;2023-04-25T07:37:02;4.80;;;1.50;;
18076;SDS011;9165;45.714;11.362;2023-04-25T07:39:29;1.23;;;1.13;;
18076;SDS011;9165;45.714;11.362;2023-04-25T07:41:56;2.00;;;1.20;;
18076;SDS011;9165;45.714;11.362;2023-04-25T07:44:25;1.17;;;1.07;;
18076;SDS011;9165;45.714;11.362;2023-04-25T07:46:52;1.07;;;1.00;;
18076;SDS011;9165;45.714;11.362;2023-04-25T07:49:18;7.10;;;1.43;;
18076;SDS011;9165;45.714;11.362;2023-04-25T07:51:45;1.53;;;1.30;;
18076;SDS011;9165;45.714;11.362;2023-04-25T07:54:13;1.53;;;1.30;;
18076;SDS011;9165;45.714;11.362;2023-04-25T07:56:40;1.40;;;1.30;;
18076;SDS011;9165;45.714;11.362;2023-04-25T07:59:08;3.73;;;1.60;;
18076;SDS011;9165;45.714;11.362;2023-04-25T08:01:35;1.57;;;1.30;;
18076;SDS011;9165;45.714;11.362;2023-04-25T08:04:02;2.40;;;1.30;;
18076;SDS011;9165;45.714;11.362;2023-04-25T08:06:28;1.37;;;1.00;;
18076;SDS011;9165;45.714;11.362;2023-04-25T08:08:56;1.37;;;1.20;;
18076;SDS011;9165;45.714;11.362;2023-04-25T08:11:22;1.30;;;1.20;;
18076;SDS011;9165;45.714;11.362;2023-04-25T08:13:50;1.20;;;1.10;;
18076;SDS011;9165;45.714;11.362;2023-04-25T08:16:18;2.67;;;1.80;;
18076;SDS011;9165;45.714;11.362;2023-04-25T08:18:44;1.73;;;1.40;;
18076;SDS011;9165;45.714;11.362;2023-04-25T08:21:11;2.70;;;1.50;;
18076;SDS011;9165;45.714;11.362;2023-04-25T08:23:37;2.83;;;1.60;;
18076;SDS011;9165;45.714;11.362;2023-04-25T08:26:04;1.67;;;1.57;;
18076;SDS011;9165;45.714;11.362;2023-04-25T08:28:31;2.17;;;1.10;;
18076;SDS011;9165;45.714;11.362;2023-04-25T08:30:57;1.37;;;1.27;;
18076;SDS011;9165;45.714;11.362;2023-04-25T08:33:25;1.10;;;1.00;;
18076;SDS011;9165;45.714;11.362;2023-04-25T08:35:52;1.00;;;1.00;;
18076;SDS011;9165;45.714;11.362;2023-04-25T08:38:18;1.07;;;1.00;;
18076;SDS011;9165;45.714;11.362;2023-04-25T08:40:46;2.00;;;1.10;;
18076;SDS011;9165;45.714;11.362;2023-04-25T08:43:15;0.90;;;0.80;;
18076;SDS011;9165;45.714;11.362;2023-04-25T08:45:43;1.10;;;1.00;;
18076;SDS011;9165;45.714;11.362;2023-04-25T08:48:11;1.30;;;1.10;;
18076;SDS011;9165;45.714;11.362;2023-04-25T08:50:40;1.43;;;1.00;;
18076;SDS011;9165;45.714;11.362;2023-04-25T08:53:12;1.67;;;1.17;;
18076;SDS011;9165;45.714;11.362;2023-04-25T08:55:43;1.43;;;0.90;;
18076;SDS011;9165;45.714;11.362;2023-04-25T08:58:09;2.30;;;0.93;;
18076;SDS011;9165;45.714;11.362;2023-04-25T09:00:37;1.30;;;1.20;;
18076;SDS011;9165;45.714;11.362;2023-04-25T09:03:03;1.27;;;0.97;;
18076;SDS011;9165;45.714;11.362;2023-04-25T09:05:30;1.27;;;0.80;;
18076;SDS011;9165;45.714;11.362;2023-04-25T09:07:58;0.80;;;0.70;;
18076;SDS011;9165;45.714;11.362;2023-04-25T09:10:25;1.13;;;0.70;;
18076;SDS011;9165;45.714;11.362;2023-04-25T09:13:02;0.40;;;0.40;;
18076;SDS011;9165;45.714;11.362;2023-04-25T09:15:29;2.80;;;0.57;;
18076;SDS011;9165;45.714;11.362;2023-04-25T09:17:56;0.77;;;0.77;;
18076;SDS011;9165;45.714;11.362;2023-04-25T09:20:22;0.80;;;0.80;;
18076;SDS011;9165;45.714;11.362;2023-04-25T09:22:50;1.13;;;1.00;;
18076;SDS011;9165;45.714;11.362;2023-04-25T09:25:28;1.50;;;0.63;;
18076;SDS011;9165;45.714;11.362;2023-04-25T09:28:00;0.90;;;0.87;;
18076;SDS011;9165;45.714;11.362;2023-04-25T09:30:29;0.70;;;0.70;;
18076;SDS011;9165;45.714;11.362;2023-04-25T09:32:56;1.67;;;1.40;;
18076;SDS011;9165;45.714;11.362;2023-04-25T09:35:23;4.13;;;1.47;;
18076;SDS011;9165;45.714;11.362;2023-04-25T09:37:51;0.80;;;0.80;;
18076;SDS011;9165;45.714;11.362;2023-04-25T09:40:17;1.77;;;1.00;;
18076;SDS011;9165;45.714;11.362;2023-04-25T09:42:45;1.17;;;0.90;;
18076;SDS011;9165;45.714;11.362;2023-04-25T09:45:12;1.17;;;1.07;;
18076;SDS011;9165;45.714;11.362;2023-04-25T09:47:40;0.87;;;0.87;;
18076;SDS011;9165;45.714;11.362;2023-04-25T09:50:15;1.23;;;1.13;;
18076;SDS011;9165;45.714;11.362;2023-04-25T09:52:42;0.87;;;0.87;;
18076;SDS011;9165;45.714;11.362;2023-04-25T09:55:09;2.93;;;1.40;;
18076;SDS011;9165;45.714;11.362;2023-04-25T09:57:36;1.60;;;1.23;;
18076;SDS011;9165;45.714;11.362;2023-04-25T10:00:06;2.20;;;1.30;;
18076;SDS011;9165;45.714;11.362;2023-04-25T10:02:37;1.67;;;1.43;;
18076;SDS011;9165;45.714;11.362;2023-04-25T10:05:05;1.20;;;0.93;;
18076;SDS011;9165;45.714;11.362;2023-04-25T10:07:32;1.33;;;1.10;;
18076;SDS011;9165;45.714;11.362;2023-04-25T10:10:00;2.63;;;1.23;;
18076;SDS011;9165;45.714;11.362;2023-04-25T10:12:28;0.80;;;0.80;;
18076;SDS011;9165;45.714;11.362;2023-04-25T10:14:56;1.43;;;1.00;;
18076;SDS011;9165;45.714;11.362;2023-04-25T10:17:25;0.73;;;0.73;;
18076;SDS011;9165;45.714;11.362;2023-04-25T10:19:52;2.23;;;0.90;;
18076;SDS011;9165;45.714;11.362;2023-04-25T10:22:20;1.53;;;0.93;;
18076;SDS011;9165;45.714;11.362;2023-04-25T10:24:49;1.30;;;0.60;;
18076;SDS011;9165;45.714;11.362;2023-04-25T10:27:17;1.20;;;0.53;;
18076;SDS011;9165;45.714;11.362;2023-04-25T10:29:44;0.70;;;0.70;;
18076;SDS011;9165;45.714;11.362;2023-04-25T10:32:11;0.60;;;0.60;;
18076;SDS011;9165;45.714;11.362;2023-04-25T10:34:39;1.43;;;0.80;;
18076;SDS011;9165;45.714;11.362;2023-04-25T10:37:08;2.93;;;1.40;;
18076;SDS011;9165;45.714;11.362;2023-04-25T10:39:34;1.47;;;1.33;;
18076;SDS011;9165;45.714;11.362;2023-04-25T10:42:01;1.70;;;0.80;;
18076;SDS011;9165;45.714;11.362;2023-04-25T10:44:28;2.00;;;0.90;;
18076;SDS011;9165;45.714;11.362;2023-04-25T10:46:55;2.57;;;1.30;;
18076;SDS011;9165;45.714;11.362;2023-04-25T10:49:29;0.80;;;0.80;;
18076;SDS011;9165;45.714;11.362;2023-04-25T10:54:51;2.63;;;1.30;;
18076;SDS011;9165;45.714;11.362;2023-04-25T10:57:30;1.47;;;0.93;;
18076;SDS011;9165;45.714;11.362;2023-04-25T11:00:00;0.70;;;0.70;;
18076;SDS011;9165;45.714;11.362;2023-04-25T11:02:30;0.70;;;0.70;;
18076;SDS011;9165;45.714;11.362;2023-04-25T11:04:56;1.07;;;0.97;;
18076;SDS011;9165;45.714;11.362;2023-04-25T11:07:25;1.83;;;1.00;;
18076;SDS011;9165;45.714;11.362;2023-04-25T11:09:56;0.90;;;0.90;;
18076;SDS011;9165;45.714;11.362;2023-04-25T11:12:24;0.97;;;0.70;;
18076;SDS011;9165;45.714;11.362;2023-04-25T11:14:50;1.80;;;0.70;;
18076;SDS011;9165;45.714;11.362;2023-04-25T11:17:25;2.53;;;0.80;;
18076;SDS011;9165;45.714;11.362;2023-04-25T11:19:51;0.70;;;0.70;;
18076;SDS011;9165;45.714;11.362;2023-04-25T11:22:18;1.90;;;0.90;;
18076;SDS011;9165;45.714;11.362;2023-04-25T11:24:47;1.17;;;0.90;;
18076;SDS011;9165;45.714;11.362;2023-04-25T11:27:15;0.93;;;0.87;;
18076;SDS011;9165;45.714;11.362;2023-04-25T11:29:42;0.60;;;0.60;;
18076;SDS011;9165;45.714;11.362;2023-04-25T11:32:08;0.70;;;0.70;;
18076;SDS011;9165;45.714;11.362;2023-04-25T11:34:35;0.70;;;0.70;;
18076;SDS011;9165;45.714;11.362;2023-04-25T11:37:02;0.93;;;0.90;;
18076;SDS011;9165;45.714;11.362;2023-04-25T11:39:28;0.90;;;0.90;;
18076;SDS011;9165;45.714;11.362;2023-04-25T11:41:55;1.30;;;1.00;;
18076;SDS011;9165;45.714;11.362;2023-04-25T11:44:24;1.43;;;1.00;;
18076;SDS011;9165;45.714;11.362;2023-04-25T11:46:51;3.03;;;1.20;;
18076;SDS011;9165;45.714;11.362;2023-04-25T11:49:18;1.10;;;1.00;;
18076;SDS011;9165;45.714;11.362;2023-04-25T11:51:45;1.50;;;1.40;;
18076;SDS011;9165;45.714;11.362;2023-04-25T11:54:12;1.30;;;1.20;;
18076;SDS011;9165;45.714;11.362;2023-04-25T11:56:40;1.30;;;1.20;;
18076;SDS011;9165;45.714;11.362;2023-04-25T11:59:07;1.87;;;1.47;;
18076;SDS011;9165;45.714;11.362;2023-04-25T12:01:35;4.87;;;1.37;;
18076;SDS011;9165;45.714;11.362;2023-04-25T12:04:12;1.60;;;1.50;;
18076;SDS011;9165;45.714;11.362;2023-04-25T12:06:38;2.77;;;1.30;;
18076;SDS011;9165;45.714;11.362;2023-04-25T12:09:06;2.67;;;1.10;;
18076;SDS011;9165;45.714;11.362;2023-04-25T12:11:40;1.40;;;1.30;;
18076;SDS011;9165;45.714;11.362;2023-04-25T12:14:06;1.40;;;1.30;;
18076;SDS011;9165;45.714;11.362;2023-04-25T12:16:41;1.83;;;1.20;;
18076;SDS011;9165;45.714;11.362;2023-04-25T12:19:07;1.40;;;1.30;;
18076;SDS011;9165;45.714;11.362;2023-04-25T12:21:34;2.37;;;1.50;;
18076;SDS011;9165;45.714;11.362;2023-04-25T12:24:10;1.90;;;1.53;;
18076;SDS011;9165;45.714;11.362;2023-04-25T12:26:47;1.37;;;1.27;;
18076;SDS011;9165;45.714;11.362;2023-04-25T12:29:17;1.63;;;1.53;;
18076;SDS011;9165;45.714;11.362;2023-04-25T12:31:46;3.40;;;2.00;;
18076;SDS011;9165;45.714;11.362;2023-04-25T12:34:12;3.57;;;1.80;;
18076;SDS011;9165;45.714;11.362;2023-04-25T12:36:39;2.50;;;1.90;;
18076;SDS011;9165;45.714;11.362;2023-04-25T12:39:06;1.90;;;1.70;;
18076;SDS011;9165;45.714;11.362;2023-04-25T12:41:33;1.47;;;1.37;;
18076;SDS011;9165;45.714;11.362;2023-04-25T12:44:00;1.77;;;1.60;;
18076;SDS011;9165;45.714;11.362;2023-04-25T12:46:26;1.83;;;1.63;;
18076;SDS011;9165;45.714;11.362;2023-04-25T12:48:54;2.03;;;1.53;;
18076;SDS011;9165;45.714;11.362;2023-04-25T12:51:22;1.90;;;1.63;;
18076;SDS011;9165;45.714;11.362;2023-04-25T12:53:50;3.07;;;1.60;;
18076;SDS011;9165;45.714;11.362;2023-04-25T12:56:16;3.63;;;1.80;;
18076;SDS011;9165;45.714;11.362;2023-04-25T12:58:43;1.60;;;1.50;;
18076;SDS011;9165;45.714;11.362;2023-04-25T13:01:10;3.10;;;1.50;;
18076;SDS011;9165;45.714;11.362;2023-04-25T13:03:37;2.13;;;1.90;;
18076;SDS011;9165;45.714;11.362;2023-04-25T13:06:06;2.90;;;1.80;;
18076;SDS011;9165;45.714;11.362;2023-04-25T13:08:32;3.60;;;2.20;;
18076;SDS011;9165;45.714;11.362;2023-04-25T13:11:00;3.13;;;2.17;;
18076;SDS011;9165;45.714;11.362;2023-04-25T13:13:26;3.77;;;2.80;;
18076;SDS011;9165;45.714;11.362;2023-04-25T13:15:53;2.10;;;1.90;;
18076;SDS011;9165;45.714;11.362;2023-04-25T13:18:20;3.70;;;2.07;;
18076;SDS011;9165;45.714;11.362;2023-04-25T13:20:46;4.17;;;2.30;;
18076;SDS011;9165;45.714;11.362;2023-04-25T13:23:14;5.23;;;2.20;;
18076;SDS011;9165;45.714;11.362;2023-04-25T13:25:41;1.30;;;1.20;;
18076;SDS011;9165;45.714;11.362;2023-04-25T13:28:07;1.60;;;1.10;;
18076;SDS011;9165;45.714;11.362;2023-04-25T13:30:34;1.77;;;1.20;;
18076;SDS011;9165;45.714;11.362;2023-04-25T13:33:00;1.27;;;1.17;;
18076;SDS011;9165;45.714;11.362;2023-04-25T13:35:28;1.30;;;1.20;;
18076;SDS011;9165;45.714;11.362;2023-04-25T13:37:55;2.00;;;1.13;;
18076;SDS011;9165;45.714;11.362;2023-04-25T13:40:23;1.83;;;0.87;;
18076;SDS011;9165;45.714;11.362;2023-04-25T13:42:50;1.00;;;1.00;;
18076;SDS011;9165;45.714;11.362;2023-04-25T13:45:16;1.10;;;0.90;;
18076;SDS011;9165;45.714;11.362;2023-04-25T13:47:43;1.30;;;1.00;;
18076;SDS011;9165;45.714;11.362;2023-04-25T13:50:10;1.43;;;1.20;;
18076;SDS011;9165;45.714;11.362;2023-04-25T13:52:36;3.60;;;2.23;;
18076;SDS011;9165;45.714;11.362;2023-04-25T13:55:03;1.60;;;1.30;;
18076;SDS011;9165;45.714;11.362;2023-04-25T13:57:33;1.77;;;1.27;;
18076;SDS011;9165;45.714;11.362;2023-04-25T13:59:59;2.03;;;1.73;;
18076;SDS011;9165;45.714;11.362;2023-04-25T14:02:29;1.90;;;1.60;;
18076;SDS011;9165;45.714;11.362;2023-04-25T14:04:56;3.47;;;2.40;;
18076;SDS011;9165;45.714;11.362;2023-04-25T14:07:23;3.23;;;2.00;;
18076;SDS011;9165;45.714;11.362;2023-04-25T14:09:49;2.97;;;2.23;;
18076;SDS011;9165;45.714;11.362;2023-04-25T14:12:16;2.37;;;1.80;;
18076;SDS011;9165;45.714;11.362;2023-04-25T14:14:44;2.57;;;1.67;;
18076;SDS011;9165;45.714;11.362;2023-04-25T14:17:11;2.67;;;1.40;;
18076;SDS011;9165;45.714;11.362;2023-04-25T14:19:37;1.47;;;1.37;;
18076;SDS011;9165;45.714;11.362;2023-04-25T14:22:08;2.73;;;1.50;;
18076;SDS011;9165;45.714;11.362;2023-04-25T14:24:34;2.00;;;1.80;;
18076;SDS011;9165;45.714;11.362;2023-04-25T14:27:01;3.33;;;1.90;;
18076;SDS011;9165;45.714;11.362;2023-04-25T14:29:27;2.07;;;1.57;;
18076;SDS011;9165;45.714;11.362;2023-04-25T14:31:55;1.93;;;1.83;;
18076;SDS011;9165;45.714;11.362;2023-04-25T14:34:23;4.30;;;1.97;;
18076;SDS011;9165;45.714;11.362;2023-04-25T14:36:51;2.10;;;1.77;;
18076;SDS011;9165;45.714;11.362;2023-04-25T14:39:17;1.30;;;1.20;;
18076;SDS011;9165;45.714;11.362;2023-04-25T14:41:44;1.67;;;1.47;;
18076;SDS011;9165;45.714;11.362;2023-04-25T14:44:10;1.53;;;1.43;;
18076;SDS011;9165;45.714;11.362;2023-04-25T14:46:37;2.23;;;1.27;;
18076;SDS011;9165;45.714;11.362;2023-04-25T14:49:05;1.83;;;1.37;;
18076;SDS011;9165;45.714;11.362;2023-04-25T14:51:32;1.33;;;1.23;;
18076;SDS011;9165;45.714;11.362;2023-04-25T14:53:59;1.20;;;1.10;;